sensor_id;sensor_type;location;lat;lon;timestamp;pressure;altitude;pressure_sealevel;temperature;humidity
70343;BME280;57767;42.068;24.752;2023-07-31T00:00:52;98271.00;;;24.13;44.77
70343;BME280;57767;42.068;24.752;2023-07-31T00:01:54;98271.19;;;24.17;44.54
70343;BME280;57767;42.068;24.752;2023-07-31T00:02:56;98278.00;;;24.14;44.57
70343;BME280;57767;42.068;24.752;2023-07-31T00:03:59;98258.59;;;24.04;44.78
70343;BME280;57767;42.068;24.752;2023-07-31T00:05:01;98262.88;;;24.05;44.82
70343;BME280;57767;42.068;24.752;2023-07-31T00:06:03;98270.31;;;24.08;44.79
70343;BME280;57767;42.068;24.752;2023-07-31T00:07:05;98276.38;;;24.05;44.86
70343;BME280;57767;42.068;24.752;2023-07-31T00:08:07;98277.78;;;24.02;45.00
70343;BME280;57767;42.068;24.752;2023-07-31T00:09:09;98280.59;;;23.97;45.25
70343;BME280;57767;42.068;24.752;2023-07-31T00:10:11;98281.69;;;23.96;44.47
70343;BME280;57767;42.068;24.752;2023-07-31T00:11:13;98282.00;;;23.94;44.60
70343;BME280;57767;42.068;24.752;2023-07-31T00:12:15;98251.75;;;23.75;45.01
70343;BME280;57767;42.068;24.752;2023-07-31T00:13:17;98270.38;;;23.85;45.73
70343;BME280;57767;42.068;24.752;2023-07-31T00:14:18;98274.84;;;23.90;45.02
70343;BME280;57767;42.068;24.752;2023-07-31T00:15:20;98279.44;;;23.89;44.03
70343;BME280;57767;42.068;24.752;2023-07-31T00:16:22;98283.25;;;23.88;45.21
70343;BME280;57767;42.068;24.752;2023-07-31T00:17:24;98277.47;;;23.81;46.20
70343;BME280;57767;42.068;24.752;2023-07-31T00:18:26;98281.31;;;23.80;46.97
70343;BME280;57767;42.068;24.752;2023-07-31T00:19:27;98254.34;;;23.58;46.95
70343;BME280;57767;42.068;24.752;2023-07-31T00:20:29;98294.44;;;23.82;46.56
70343;BME280;57767;42.068;24.752;2023-07-31T00:21:31;98297.47;;;23.80;46.07
70343;BME280;57767;42.068;24.752;2023-07-31T00:22:33;98290.78;;;23.78;45.68
70343;BME280;57767;42.068;24.752;2023-07-31T00:23:34;98288.09;;;23.78;45.61
70343;BME280;57767;42.068;24.752;2023-07-31T00:24:36;98292.09;;;23.80;45.50
70343;BME280;57767;42.068;24.752;2023-07-31T00:25:38;98299.97;;;23.77;45.97
70343;BME280;57767;42.068;24.752;2023-07-31T00:26:40;98303.97;;;23.79;46.46
70343;BME280;57767;42.068;24.752;2023-07-31T00:27:42;98278.47;;;23.63;46.46
70343;BME280;57767;42.068;24.752;2023-07-31T00:28:47;98295.69;;;23.76;47.77
70343;BME280;57767;42.068;24.752;2023-07-31T00:29:48;98286.31;;;23.73;46.97
70343;BME280;57767;42.068;24.752;2023-07-31T00:30:50;98289.19;;;23.77;46.66
70343;BME280;57767;42.068;24.752;2023-07-31T00:31:52;98283.91;;;23.72;47.23
70343;BME280;57767;42.068;24.752;2023-07-31T00:32:54;98300.47;;;23.79;46.77
70343;BME280;57767;42.068;24.752;2023-07-31T00:33:56;98299.97;;;23.77;47.06
70343;BME280;57767;42.068;24.752;2023-07-31T00:34:58;98288.50;;;23.71;47.07
70343;BME280;57767;42.068;24.752;2023-07-31T00:35:59;98300.78;;;23.77;48.36
70343;BME280;57767;42.068;24.752;2023-07-31T00:37:01;98298.38;;;23.76;47.51
70343;BME280;57767;42.068;24.752;2023-07-31T00:38:05;98300.59;;;23.74;48.14
70343;BME280;57767;42.068;24.752;2023-07-31T00:39:07;98304.38;;;23.73;48.06
70343;BME280;57767;42.068;24.752;2023-07-31T00:40:09;98300.59;;;23.74;47.51
70343;BME280;57767;42.068;24.752;2023-07-31T00:41:11;98308.69;;;23.74;47.91
70343;BME280;57767;42.068;24.752;2023-07-31T00:42:12;98301.38;;;23.74;47.75
70343;BME280;57767;42.068;24.752;2023-07-31T00:43:14;98294.09;;;23.75;47.07
70343;BME280;57767;42.068;24.752;2023-07-31T00:44:16;98292.19;;;23.75;46.81
70343;BME280;57767;42.068;24.752;2023-07-31T00:45:18;98306.78;;;23.74;46.78
70343;BME280;57767;42.068;24.752;2023-07-31T00:46:20;98290.91;;;23.73;47.18
70343;BME280;57767;42.068;24.752;2023-07-31T00:47:22;98296.00;;;23.74;47.17
70343;BME280;57767;42.068;24.752;2023-07-31T00:48:24;98300.28;;;23.75;46.58
70343;BME280;57767;42.068;24.752;2023-07-31T00:49:26;98293.09;;;23.71;46.47
70343;BME280;57767;42.068;24.752;2023-07-31T00:50:29;98304.88;;;23.75;46.70
70343;BME280;57767;42.068;24.752;2023-07-31T00:51:31;98311.06;;;23.75;47.38
70343;BME280;57767;42.068;24.752;2023-07-31T00:52:33;98311.06;;;23.75;47.15
70343;BME280;57767;42.068;24.752;2023-07-31T00:53:38;98312.97;;;23.75;49.21
70343;BME280;57767;42.068;24.752;2023-07-31T00:54:42;98303.59;;;23.72;49.58
70343;BME280;57767;42.068;24.752;2023-07-31T00:55:44;98307.56;;;23.75;48.13
70343;BME280;57767;42.068;24.752;2023-07-31T00:56:46;98301.38;;;23.74;48.87
70343;BME280;57767;42.068;24.752;2023-07-31T00:57:50;98304.56;;;23.76;48.39
70343;BME280;57767;42.068;24.752;2023-07-31T00:58:55;98308.97;;;23.72;47.53
70343;BME280;57767;42.068;24.752;2023-07-31T00:59:56;98302.19;;;23.75;46.78
70343;BME280;57767;42.068;24.752;2023-07-31T01:00:58;98310.94;;;23.80;46.97
70343;BME280;57767;42.068;24.752;2023-07-31T01:02:00;98310.47;;;23.78;47.93
70343;BME280;57767;42.068;24.752;2023-07-31T01:03:02;98309.78;;;23.73;47.68
70343;BME280;57767;42.068;24.752;2023-07-31T01:04:04;98295.06;;;23.56;48.58
70343;BME280;57767;42.068;24.752;2023-07-31T01:05:06;98307.53;;;23.66;48.04
70343;BME280;57767;42.068;24.752;2023-07-31T01:06:15;98317.06;;;23.72;48.49
70343;BME280;57767;42.068;24.752;2023-07-31T01:07:24;98318.78;;;23.68;49.11
70343;BME280;57767;42.068;24.752;2023-07-31T01:09:59;98309.84;;;23.59;47.96
70343;BME280;57767;42.068;24.752;2023-07-31T01:11:14;98271.88;;;23.33;49.49
70343;BME280;57767;42.068;24.752;2023-07-31T01:12:17;98316.31;;;23.58;48.40
70343;BME280;57767;42.068;24.752;2023-07-31T01:13:19;98316.63;;;23.56;48.46
70343;BME280;57767;42.068;24.752;2023-07-31T01:14:21;98319.00;;;23.58;48.38
70343;BME280;57767;42.068;24.752;2023-07-31T01:15:23;98309.66;;;23.55;47.74
70343;BME280;57767;42.068;24.752;2023-07-31T01:16:26;98323.81;;;23.61;47.76
70343;BME280;57767;42.068;24.752;2023-07-31T01:17:28;98318.41;;;23.61;47.72
70343;BME280;57767;42.068;24.752;2023-07-31T01:18:30;98316.63;;;23.56;47.51
70343;BME280;57767;42.068;24.752;2023-07-31T01:19:32;98307.44;;;23.57;48.45
70343;BME280;57767;42.068;24.752;2023-07-31T01:20:35;98316.81;;;23.60;47.55
70343;BME280;57767;42.068;24.752;2023-07-31T01:23:20;98316.03;;;23.60;48.72
70343;BME280;57767;42.068;24.752;2023-07-31T01:26:47;98304.56;;;23.54;48.71
70343;BME280;57767;42.068;24.752;2023-07-31T01:28:12;98313.63;;;23.58;48.14
70343;BME280;57767;42.068;24.752;2023-07-31T01:29:23;98306.63;;;23.57;48.23
70343;BME280;57767;42.068;24.752;2023-07-31T01:30:32;98300.88;;;23.50;48.25
70343;BME280;57767;42.068;24.752;2023-07-31T01:31:39;98310.75;;;23.54;48.44
70343;BME280;57767;42.068;24.752;2023-07-31T01:32:42;98313.75;;;23.53;48.57
70343;BME280;57767;42.068;24.752;2023-07-31T01:33:45;98306.78;;;23.52;48.56
70343;BME280;57767;42.068;24.752;2023-07-31T01:34:48;98301.69;;;23.50;48.58
70343;BME280;57767;42.068;24.752;2023-07-31T01:35:50;98306.78;;;23.52;49.07
70343;BME280;57767;42.068;24.752;2023-07-31T01:36:53;98290.13;;;23.36;46.61
70343;BME280;57767;42.068;24.752;2023-07-31T01:37:55;98293.88;;;23.49;46.43
70343;BME280;57767;42.068;24.752;2023-07-31T01:39:00;98303.94;;;23.57;45.88
70343;BME280;57767;42.068;24.752;2023-07-31T01:40:03;98310.13;;;23.57;46.10
70343;BME280;57767;42.068;24.752;2023-07-31T01:41:05;98298.09;;;23.55;45.93
70343;BME280;57767;42.068;24.752;2023-07-31T01:42:07;98300.94;;;23.58;45.90
70343;BME280;57767;42.068;24.752;2023-07-31T01:43:09;98305.84;;;23.56;45.56
70343;BME280;57767;42.068;24.752;2023-07-31T01:44:11;98281.16;;;23.41;45.28
70343;BME280;57767;42.068;24.752;2023-07-31T01:45:13;98300.88;;;23.50;45.86
70343;BME280;57767;42.068;24.752;2023-07-31T01:46:14;98302.19;;;23.52;45.94
70343;BME280;57767;42.068;24.752;2023-07-31T01:47:16;98280.44;;;23.35;46.13
70343;BME280;57767;42.068;24.752;2023-07-31T01:48:18;98302.97;;;23.53;45.77
70343;BME280;57767;42.068;24.752;2023-07-31T01:49:20;98300.88;;;23.50;46.66
70343;BME280;57767;42.068;24.752;2023-07-31T01:50:22;98304.09;;;23.52;47.45
70343;BME280;57767;42.068;24.752;2023-07-31T01:51:23;98296.56;;;23.49;46.19
70343;BME280;57767;42.068;24.752;2023-07-31T01:52:25;98294.97;;;23.48;47.39
70343;BME280;57767;42.068;24.752;2023-07-31T01:53:27;98300.88;;;23.50;47.16
70343;BME280;57767;42.068;24.752;2023-07-31T01:54:29;98299.78;;;23.51;46.89
70343;BME280;57767;42.068;24.752;2023-07-31T01:55:31;98292.28;;;23.48;47.60
70343;BME280;57767;42.068;24.752;2023-07-31T01:56:33;98295.47;;;23.50;47.67
70343;BME280;57767;42.068;24.752;2023-07-31T01:57:36;98300.28;;;23.53;45.99
70343;BME280;57767;42.068;24.752;2023-07-31T01:58:39;98298.69;;;23.52;45.71
70343;BME280;57767;42.068;24.752;2023-07-31T01:59:40;98301.97;;;23.49;45.63
70343;BME280;57767;42.068;24.752;2023-07-31T02:00:42;98307.88;;;23.51;45.81
70343;BME280;57767;42.068;24.752;2023-07-31T02:01:44;98294.97;;;23.48;45.76
70343;BME280;57767;42.068;24.752;2023-07-31T02:02:46;98299.25;;;23.49;45.84
70343;BME280;57767;42.068;24.752;2023-07-31T02:03:48;98302.50;;;23.51;45.45
70343;BME280;57767;42.068;24.752;2023-07-31T02:04:50;98306.25;;;23.50;45.75
70343;BME280;57767;42.068;24.752;2023-07-31T02:05:53;98299.00;;;23.50;45.21
70343;BME280;57767;42.068;24.752;2023-07-31T02:06:55;98296.56;;;23.49;45.22
70343;BME280;57767;42.068;24.752;2023-07-31T02:07:57;98300.06;;;23.49;45.50
70343;BME280;57767;42.068;24.752;2023-07-31T02:08:59;98300.88;;;23.50;44.96
70343;BME280;57767;42.068;24.752;2023-07-31T02:10:01;98289.72;;;23.43;45.56
70343;BME280;57767;42.068;24.752;2023-07-31T02:11:03;98298.28;;;23.45;44.99
70343;BME280;57767;42.068;24.752;2023-07-31T02:12:05;98301.97;;;23.49;45.39
70343;BME280;57767;42.068;24.752;2023-07-31T02:13:10;98297.09;;;23.51;45.30
70343;BME280;57767;42.068;24.752;2023-07-31T02:14:12;98299.50;;;23.52;45.36
70343;BME280;57767;42.068;24.752;2023-07-31T02:15:13;98302.50;;;23.51;45.42
70343;BME280;57767;42.068;24.752;2023-07-31T02:16:15;98296.31;;;23.50;45.36
70343;BME280;57767;42.068;24.752;2023-07-31T02:17:19;98293.59;;;23.50;45.24
70343;BME280;57767;42.068;24.752;2023-07-31T02:18:21;98296.06;;;23.47;45.81
70343;BME280;57767;42.068;24.752;2023-07-31T02:19:23;98297.97;;;23.46;45.52
70343;BME280;57767;42.068;24.752;2023-07-31T02:20:25;98292.28;;;23.48;45.49
70343;BME280;57767;42.068;24.752;2023-07-31T02:21:27;98296.56;;;23.49;45.44
70343;BME280;57767;42.068;24.752;2023-07-31T02:22:29;98285.09;;;23.43;45.49
70343;BME280;57767;42.068;24.752;2023-07-31T02:23:31;98296.31;;;23.50;45.28
70343;BME280;57767;42.068;24.752;2023-07-31T02:24:33;98289.09;;;23.46;45.05
70343;BME280;57767;42.068;24.752;2023-07-31T02:25:34;98289.88;;;23.46;45.42
70343;BME280;57767;42.068;24.752;2023-07-31T02:26:37;98295.69;;;23.53;45.30
70343;BME280;57767;42.068;24.752;2023-07-31T02:27:39;98286.09;;;23.47;45.28
70343;BME280;57767;42.068;24.752;2023-07-31T02:28:41;98285.22;;;23.52;46.27
70343;BME280;57767;42.068;24.752;2023-07-31T02:29:44;98288.88;;;23.56;46.42
70343;BME280;57767;42.068;24.752;2023-07-31T02:30:46;98287.97;;;23.61;47.07
70343;BME280;57767;42.068;24.752;2023-07-31T02:31:48;98286.56;;;23.63;47.34
70343;BME280;57767;42.068;24.752;2023-07-31T02:32:50;98283.88;;;23.63;47.83
70343;BME280;57767;42.068;24.752;2023-07-31T02:33:52;98288.00;;;23.69;48.38
70343;BME280;57767;42.068;24.752;2023-07-31T02:34:54;98282.63;;;23.69;48.50
70343;BME280;57767;42.068;24.752;2023-07-31T02:35:55;98280.91;;;23.73;49.87
70343;BME280;57767;42.068;24.752;2023-07-31T02:36:57;98287.78;;;23.79;50.46
70343;BME280;57767;42.068;24.752;2023-07-31T02:37:59;98279.22;;;23.77;50.78
70343;BME280;57767;42.068;24.752;2023-07-31T02:39:01;98284.47;;;23.82;51.31
70343;BME280;57767;42.068;24.752;2023-07-31T02:40:03;98282.75;;;23.86;51.50
70343;BME280;57767;42.068;24.752;2023-07-31T02:41:05;98274.34;;;23.88;51.56
70343;BME280;57767;42.068;24.752;2023-07-31T02:42:06;98279.44;;;23.89;51.53
70343;BME280;57767;42.068;24.752;2023-07-31T02:43:08;98287.06;;;23.96;51.25
70343;BME280;57767;42.068;24.752;2023-07-31T02:44:10;98289.47;;;23.98;51.10
70343;BME280;57767;42.068;24.752;2023-07-31T02:45:15;98259.09;;;23.83;51.01
70343;BME280;57767;42.068;24.752;2023-07-31T02:46:17;98281.56;;;24.01;52.03
70343;BME280;57767;42.068;24.752;2023-07-31T02:47:19;98278.25;;;24.04;50.99
70343;BME280;57767;42.068;24.752;2023-07-31T02:48:20;98279.22;;;24.08;51.49
70343;BME280;57767;42.068;24.752;2023-07-31T02:49:22;98276.69;;;24.12;51.61
70343;BME280;57767;42.068;24.752;2023-07-31T02:50:24;98278.00;;;24.14;51.50
70343;BME280;57767;42.068;24.752;2023-07-31T02:51:26;98273.19;;;24.11;51.58
70343;BME280;57767;42.068;24.752;2023-07-31T02:52:28;98274.97;;;24.16;51.30
70343;BME280;57767;42.068;24.752;2023-07-31T02:53:29;98269.75;;;24.19;51.33
70343;BME280;57767;42.068;24.752;2023-07-31T02:54:31;98273.72;;;24.22;51.09
70343;BME280;57767;42.068;24.752;2023-07-31T02:55:33;98278.53;;;24.25;50.95
70343;BME280;57767;42.068;24.752;2023-07-31T02:56:35;98278.72;;;24.28;50.84
70343;BME280;57767;42.068;24.752;2023-07-31T02:57:40;98275.41;;;24.32;50.97
70343;BME280;57767;42.068;24.752;2023-07-31T02:58:41;98266.97;;;24.33;50.63
70343;BME280;57767;42.068;24.752;2023-07-31T02:59:43;98265.06;;;24.34;50.78
70343;BME280;57767;42.068;24.752;2023-07-31T03:00:45;98259.25;;;24.40;50.59
70343;BME280;57767;42.068;24.752;2023-07-31T03:01:47;98256.53;;;24.40;50.33
70343;BME280;57767;42.068;24.752;2023-07-31T03:02:49;98258.63;;;24.43;50.55
70343;BME280;57767;42.068;24.752;2023-07-31T03:03:51;98256.06;;;24.47;49.98
70343;BME280;57767;42.068;24.752;2023-07-31T03:04:52;98249.75;;;24.51;50.18
70343;BME280;57767;42.068;24.752;2023-07-31T03:05:54;98254.53;;;24.54;49.97
70343;BME280;57767;42.068;24.752;2023-07-31T03:06:56;98256.13;;;24.55;50.01
70343;BME280;57767;42.068;24.752;2023-07-31T03:07:58;98250.22;;;24.53;50.16
70343;BME280;57767;42.068;24.752;2023-07-31T03:09:00;98255.81;;;24.57;49.99
70343;BME280;57767;42.068;24.752;2023-07-31T03:10:01;98252.31;;;24.56;50.23
70343;BME280;57767;42.068;24.752;2023-07-31T03:11:03;98254.66;;;24.58;50.31
70343;BME280;57767;42.068;24.752;2023-07-31T03:12:05;98260.25;;;24.61;50.21
70343;BME280;57767;42.068;24.752;2023-07-31T03:13:07;98259.16;;;24.62;50.47
70343;BME280;57767;42.068;24.752;2023-07-31T03:14:09;98259.28;;;24.57;50.68
70343;BME280;57767;42.068;24.752;2023-07-31T03:15:11;98255.00;;;24.56;51.02
70343;BME280;57767;42.068;24.752;2023-07-31T03:16:12;98266.13;;;24.63;51.21
70343;BME280;57767;42.068;24.752;2023-07-31T03:17:15;98250.25;;;24.62;51.19
70343;BME280;57767;42.068;24.752;2023-07-31T03:18:17;98264.69;;;24.57;52.17
70343;BME280;57767;42.068;24.752;2023-07-31T03:19:18;98248.94;;;24.51;52.21
70343;BME280;57767;42.068;24.752;2023-07-31T03:20:20;98249.41;;;24.44;54.04
70343;BME280;57767;42.068;24.752;2023-07-31T03:21:23;98256.38;;;24.45;54.66
70343;BME280;57767;42.068;24.752;2023-07-31T03:22:25;98249.56;;;24.39;55.35
70343;BME280;57767;42.068;24.752;2023-07-31T03:23:26;98265.75;;;24.39;55.80
70343;BME280;57767;42.068;24.752;2023-07-31T03:24:28;98261.91;;;24.32;56.51
70343;BME280;57767;42.068;24.752;2023-07-31T03:25:30;98263.94;;;24.26;57.10
70343;BME280;57767;42.068;24.752;2023-07-31T03:26:32;98273.44;;;24.23;57.60
70343;BME280;57767;42.068;24.752;2023-07-31T03:27:34;98273.38;;;24.15;57.83
70343;BME280;57767;42.068;24.752;2023-07-31T03:28:36;98266.69;;;24.04;58.27
70343;BME280;57767;42.068;24.752;2023-07-31T03:29:38;98280.28;;;23.99;58.52
70343;BME280;57767;42.068;24.752;2023-07-31T03:30:40;98269.50;;;23.99;58.76
70343;BME280;57767;42.068;24.752;2023-07-31T03:31:41;98264.84;;;23.90;58.83
70343;BME280;57767;42.068;24.752;2023-07-31T03:32:43;98278.03;;;23.92;58.95
70343;BME280;57767;42.068;24.752;2023-07-31T03:33:45;98276.56;;;23.86;58.81
70343;BME280;57767;42.068;24.752;2023-07-31T03:34:47;98276.38;;;23.82;59.11
70343;BME280;57767;42.068;24.752;2023-07-31T03:35:49;98291.59;;;23.78;59.40
70343;BME280;57767;42.068;24.752;2023-07-31T03:36:50;98294.88;;;23.75;59.99
70343;BME280;57767;42.068;24.752;2023-07-31T03:37:52;98296.09;;;23.69;60.40
70343;BME280;57767;42.068;24.752;2023-07-31T03:38:54;98291.25;;;23.57;60.25
70343;BME280;57767;42.068;24.752;2023-07-31T03:39:56;98296.19;;;23.55;60.18
70343;BME280;57767;42.068;24.752;2023-07-31T03:40:58;98294.97;;;23.48;62.02
70343;BME280;57767;42.068;24.752;2023-07-31T03:42:00;98298.47;;;23.48;62.86
70343;BME280;57767;42.068;24.752;2023-07-31T03:43:02;98311.94;;;23.48;62.67
70343;BME280;57767;42.068;24.752;2023-07-31T03:44:04;98299.69;;;23.42;63.59
70343;BME280;57767;42.068;24.752;2023-07-31T03:45:06;98296.25;;;23.28;64.02
70343;BME280;57767;42.068;24.752;2023-07-31T03:46:08;98315.91;;;23.29;65.05
70343;BME280;57767;42.068;24.752;2023-07-31T03:47:11;98313.31;;;23.23;65.71
70343;BME280;57767;42.068;24.752;2023-07-31T03:48:14;98313.63;;;23.08;66.57
70343;BME280;57767;42.068;24.752;2023-07-31T03:49:16;98313.56;;;23.00;68.44
70343;BME280;57767;42.068;24.752;2023-07-31T03:50:17;98321.38;;;22.88;69.00
70343;BME280;57767;42.068;24.752;2023-07-31T03:51:19;98319.97;;;22.76;69.72
70343;BME280;57767;42.068;24.752;2023-07-31T03:52:21;98325.22;;;22.68;70.11
70343;BME280;57767;42.068;24.752;2023-07-31T03:53:23;98321.13;;;22.57;69.70
70343;BME280;57767;42.068;24.752;2023-07-31T03:54:25;98333.50;;;22.58;71.54
70343;BME280;57767;42.068;24.752;2023-07-31T03:55:26;98326.41;;;22.48;71.02
70343;BME280;57767;42.068;24.752;2023-07-31T03:56:28;98348.22;;;22.46;71.53
70343;BME280;57767;42.068;24.752;2023-07-31T03:57:30;98342.47;;;22.39;72.45
70343;BME280;57767;42.068;24.752;2023-07-31T03:58:34;98336.66;;;22.32;72.83
70343;BME280;57767;42.068;24.752;2023-07-31T03:59:36;98347.53;;;22.27;73.42
70343;BME280;57767;42.068;24.752;2023-07-31T04:00:40;98350.78;;;22.24;73.15
70343;BME280;57767;42.068;24.752;2023-07-31T04:01:42;98331.81;;;22.02;72.87
70343;BME280;57767;42.068;24.752;2023-07-31T04:02:44;98353.66;;;22.14;73.04
70343;BME280;57767;42.068;24.752;2023-07-31T04:03:46;98342.28;;;22.03;73.64
70343;BME280;57767;42.068;24.752;2023-07-31T04:04:48;98347.72;;;21.98;74.02
70343;BME280;57767;42.068;24.752;2023-07-31T04:05:50;98347.19;;;21.96;74.20
70343;BME280;57767;42.068;24.752;2023-07-31T04:06:51;98358.25;;;21.95;74.00
70343;BME280;57767;42.068;24.752;2023-07-31T04:07:53;98355.84;;;21.93;74.66
70343;BME280;57767;42.068;24.752;2023-07-31T04:08:55;98353.03;;;21.85;73.12
70343;BME280;57767;42.068;24.752;2023-07-31T04:09:57;98332.66;;;21.65;73.56
70343;BME280;57767;42.068;24.752;2023-07-31T04:10:59;98358.00;;;21.77;73.75
70343;BME280;57767;42.068;24.752;2023-07-31T04:12:00;98353.19;;;21.74;73.99
70343;BME280;57767;42.068;24.752;2023-07-31T04:13:02;98347.59;;;21.71;73.17
70343;BME280;57767;42.068;24.752;2023-07-31T04:14:04;98365.03;;;21.73;73.33
70343;BME280;57767;42.068;24.752;2023-07-31T04:15:07;98355.94;;;21.69;73.43
70343;BME280;57767;42.068;24.752;2023-07-31T04:16:09;98355.66;;;21.71;73.63
70343;BME280;57767;42.068;24.752;2023-07-31T04:17:11;98356.19;;;21.73;71.88
70343;BME280;57767;42.068;24.752;2023-07-31T04:18:13;98358.88;;;21.73;72.44
70343;BME280;57767;42.068;24.752;2023-07-31T04:19:14;98359.94;;;21.72;71.80
70343;BME280;57767;42.068;24.752;2023-07-31T04:20:18;98360.75;;;21.72;71.61
70343;BME280;57767;42.068;24.752;2023-07-31T04:21:20;98353.78;;;21.71;72.34
70343;BME280;57767;42.068;24.752;2023-07-31T04:22:22;98366.06;;;21.77;72.04
70343;BME280;57767;42.068;24.752;2023-07-31T04:23:24;98380.28;;;21.78;72.11
70343;BME280;57767;42.068;24.752;2023-07-31T04:24:26;98375.41;;;21.80;71.10
70343;BME280;57767;42.068;24.752;2023-07-31T04:25:28;98358.00;;;21.77;71.35
70343;BME280;57767;42.068;24.752;2023-07-31T04:26:30;98362.84;;;21.75;71.52
70343;BME280;57767;42.068;24.752;2023-07-31T04:27:31;98366.53;;;21.79;71.54
70343;BME280;57767;42.068;24.752;2023-07-31T04:28:33;98370.75;;;21.86;72.09
70343;BME280;57767;42.068;24.752;2023-07-31T04:29:35;98372.88;;;21.89;71.01
70343;BME280;57767;42.068;24.752;2023-07-31T04:30:37;98364.00;;;21.88;70.69
70343;BME280;57767;42.068;24.752;2023-07-31T04:31:39;98368.19;;;21.94;70.17
70343;BME280;57767;42.068;24.752;2023-07-31T04:32:41;98367.09;;;21.95;69.97
70343;BME280;57767;42.068;24.752;2023-07-31T04:33:43;98368.41;;;21.98;70.70
70343;BME280;57767;42.068;24.752;2023-07-31T04:34:44;98361.22;;;21.93;69.83
70343;BME280;57767;42.068;24.752;2023-07-31T04:35:53;98371.06;;;22.03;70.43
70343;BME280;57767;42.068;24.752;2023-07-31T04:36:55;98372.06;;;22.07;68.82
70343;BME280;57767;42.068;24.752;2023-07-31T04:37:57;98373.06;;;22.11;69.99
70343;BME280;57767;42.068;24.752;2023-07-31T04:38:58;98366.03;;;22.15;69.69
70343;BME280;57767;42.068;24.752;2023-07-31T04:40:00;98372.88;;;22.21;69.90
70343;BME280;57767;42.068;24.752;2023-07-31T04:41:02;98370.72;;;22.23;69.69
70343;BME280;57767;42.068;24.752;2023-07-31T04:42:05;98366.94;;;22.24;68.89
70343;BME280;57767;42.068;24.752;2023-07-31T04:43:07;98357.25;;;22.23;68.82
70343;BME280;57767;42.068;24.752;2023-07-31T04:44:09;98374.13;;;22.29;68.93
70343;BME280;57767;42.068;24.752;2023-07-31T04:45:12;98375.91;;;22.33;68.64
70343;BME280;57767;42.068;24.752;2023-07-31T04:46:14;98373.13;;;22.38;67.92
70343;BME280;57767;42.068;24.752;2023-07-31T04:47:16;98363.97;;;22.39;68.12
70343;BME280;57767;42.068;24.752;2023-07-31T04:48:18;98344.84;;;22.27;67.81
70343;BME280;57767;42.068;24.752;2023-07-31T04:49:20;98363.88;;;22.44;68.29
70343;BME280;57767;42.068;24.752;2023-07-31T04:50:21;98339.16;;;22.29;67.76
70343;BME280;57767;42.068;24.752;2023-07-31T04:51:23;98368.38;;;22.49;67.31
70343;BME280;57767;42.068;24.752;2023-07-31T04:52:26;98365.09;;;22.52;67.43
70343;BME280;57767;42.068;24.752;2023-07-31T04:53:28;98361.31;;;22.53;67.26
70343;BME280;57767;42.068;24.752;2023-07-31T04:54:30;98366.28;;;22.60;67.20
70343;BME280;57767;42.068;24.752;2023-07-31T04:55:31;98360.41;;;22.58;67.30
70343;BME280;57767;42.068;24.752;2023-07-31T04:56:33;98365.09;;;22.66;67.05
70343;BME280;57767;42.068;24.752;2023-07-31T04:57:35;98363.38;;;22.70;66.82
70343;BME280;57767;42.068;24.752;2023-07-31T04:58:37;98363.59;;;22.73;67.18
70343;BME280;57767;42.068;24.752;2023-07-31T04:59:39;98357.41;;;22.73;66.01
70343;BME280;57767;42.068;24.752;2023-07-31T05:00:40;98365.03;;;22.84;66.57
70343;BME280;57767;42.068;24.752;2023-07-31T05:01:42;98363.34;;;22.89;66.67
70343;BME280;57767;42.068;24.752;2023-07-31T05:02:44;98366.72;;;22.94;67.04
70343;BME280;57767;42.068;24.752;2023-07-31T05:03:46;98363.94;;;22.99;66.86
70343;BME280;57767;42.068;24.752;2023-07-31T05:04:48;98359.25;;;23.05;66.96
70343;BME280;57767;42.068;24.752;2023-07-31T05:05:51;98350.25;;;23.09;66.63
70343;BME280;57767;42.068;24.752;2023-07-31T05:06:53;98360.81;;;23.19;65.66
70343;BME280;57767;42.068;24.752;2023-07-31T05:07:54;98354.81;;;23.22;65.49
70343;BME280;57767;42.068;24.752;2023-07-31T05:08:56;98351.72;;;23.29;65.27
70343;BME280;57767;42.068;24.752;2023-07-31T05:09:58;98351.28;;;23.36;65.99
70343;BME280;57767;42.068;24.752;2023-07-31T05:11:00;98362.94;;;23.45;64.61
70343;BME280;57767;42.068;24.752;2023-07-31T05:12:04;98361.84;;;23.46;63.87
70343;BME280;57767;42.068;24.752;2023-07-31T05:13:06;98350.47;;;23.49;64.14
70343;BME280;57767;42.068;24.752;2023-07-31T05:14:08;98354.06;;;23.58;64.38
70343;BME280;57767;42.068;24.752;2023-07-31T05:15:10;98355.84;;;23.63;63.41
70343;BME280;57767;42.068;24.752;2023-07-31T05:16:12;98350.50;;;23.71;63.36
70343;BME280;57767;42.068;24.752;2023-07-31T05:17:13;98356.09;;;23.75;63.83
70343;BME280;57767;42.068;24.752;2023-07-31T05:18:15;98345.50;;;23.78;63.32
70343;BME280;57767;42.068;24.752;2023-07-31T05:19:17;98327.97;;;23.67;62.49
70343;BME280;57767;42.068;24.752;2023-07-31T05:20:19;98347.19;;;23.97;63.30
70343;BME280;57767;42.068;24.752;2023-07-31T05:21:21;98351.06;;;24.04;63.75
70343;BME280;57767;42.068;24.752;2023-07-31T05:22:23;98352.22;;;24.12;64.20
70343;BME280;57767;42.068;24.752;2023-07-31T05:23:25;98353.06;;;24.21;63.69
70343;BME280;57767;42.068;24.752;2023-07-31T05:24:26;98349.47;;;24.25;64.07
70343;BME280;57767;42.068;24.752;2023-07-31T05:25:28;98344.41;;;24.33;64.61
70343;BME280;57767;42.068;24.752;2023-07-31T05:26:32;98354.34;;;24.46;65.66
70343;BME280;57767;42.068;24.752;2023-07-31T05:27:34;98356.63;;;24.61;65.09
70343;BME280;57767;42.068;24.752;2023-07-31T05:28:36;98360.50;;;24.69;62.75
70343;BME280;57767;42.068;24.752;2023-07-31T05:29:40;98355.41;;;24.76;64.07
70343;BME280;57767;42.068;24.752;2023-07-31T05:30:42;98365.44;;;24.84;62.92
70343;BME280;57767;42.068;24.752;2023-07-31T05:31:44;98368.50;;;24.91;64.46